sensor_id;sensor_type;location;lat;lon;timestamp;P1;durP1;ratioP1;P2;durP2;ratioP2
3613;SDS011;1821;50.936;6.854;2023-05-16T00:00:36;13.88;;;5.15;;
3613;SDS011;1821;50.936;6.854;2023-05-16T00:01:18;11.57;;;5.18;;
3613;SDS011;1821;50.936;6.854;2023-05-16T00:02:00;7.20;;;5.50;;
3613;SDS011;1821;50.936;6.854;2023-05-16T00:02:43;10.60;;;5.82;;
3613;SDS011;1821;50.936;6.854;2023-05-16T00:03:25;9.10;;;5.90;;
3613;SDS011;1821;50.936;6.854;2023-05-16T00:04:08;8.73;;;5.88;;
3613;SDS011;1821;50.936;6.854;2023-05-16T00:04:50;11.02;;;6.30;;
3613;SDS011;1821;50.936;6.854;2023-05-16T00:05:32;8.85;;;5.72;;
3613;SDS011;1821;50.936;6.854;2023-05-16T00:06:14;8.80;;;5.78;;
3613;SDS011;1821;50.936;6.854;2023-05-16T00:06:57;10.57;;;6.20;;
3613;SDS011;1821;50.936;6.854;2023-05-16T00:07:41;9.25;;;5.70;;
3613;SDS011;1821;50.936;6.854;2023-05-16T00:08:24;10.03;;;6.47;;
3613;SDS011;1821;50.936;6.854;2023-05-16T00:09:07;10.15;;;6.20;;
3613;SDS011;1821;50.936;6.854;2023-05-16T00:09:49;9.38;;;6.18;;
3613;SDS011;1821;50.936;6.854;2023-05-16T00:10:33;10.95;;;6.30;;
3613;SDS011;1821;50.936;6.854;2023-05-16T00:11:18;9.93;;;6.10;;
3613;SDS011;1821;50.936;6.854;2023-05-16T00:12:01;8.38;;;5.50;;
3613;SDS011;1821;50.936;6.854;2023-05-16T00:12:43;7.72;;;6.15;;
3613;SDS011;1821;50.936;6.854;2023-05-16T00:13:28;8.25;;;6.63;;
3613;SDS011;1821;50.936;6.854;2023-05-16T00:14:12;10.25;;;6.32;;
3613;SDS011;1821;50.936;6.854;2023-05-16T00:14:55;11.32;;;7.05;;
3613;SDS011;1821;50.936;6.854;2023-05-16T00:15:37;9.77;;;6.20;;
3613;SDS011;1821;50.936;6.854;2023-05-16T00:16:21;9.27;;;6.28;;
3613;SDS011;1821;50.936;6.854;2023-05-16T00:17:08;7.93;;;6.20;;
3613;SDS011;1821;50.936;6.854;2023-05-16T00:17:54;10.77;;;6.65;;
3613;SDS011;1821;50.936;6.854;2023-05-16T00:18:39;9.98;;;7.10;;
3613;SDS011;1821;50.936;6.854;2023-05-16T00:19:21;12.00;;;7.50;;
3613;SDS011;1821;50.936;6.854;2023-05-16T00:20:04;11.95;;;6.75;;
3613;SDS011;1821;50.936;6.854;2023-05-16T00:20:48;9.90;;;7.47;;
3613;SDS011;1821;50.936;6.854;2023-05-16T00:21:33;12.95;;;7.25;;
3613;SDS011;1821;50.936;6.854;2023-05-16T00:22:15;10.77;;;7.05;;
3613;SDS011;1821;50.936;6.854;2023-05-16T00:22:57;10.20;;;7.80;;
3613;SDS011;1821;50.936;6.854;2023-05-16T00:23:41;11.05;;;8.27;;
3613;SDS011;1821;50.936;6.854;2023-05-16T00:24:25;12.85;;;8.05;;
3613;SDS011;1821;50.936;6.854;2023-05-16T00:25:07;11.80;;;7.95;;
3613;SDS011;1821;50.936;6.854;2023-05-16T00:25:52;9.20;;;7.45;;
3613;SDS011;1821;50.936;6.854;2023-05-16T00:26:34;11.00;;;7.97;;
3613;SDS011;1821;50.936;6.854;2023-05-16T00:27:18;8.85;;;7.32;;
3613;SDS011;1821;50.936;6.854;2023-05-16T00:28:00;9.73;;;7.22;;
3613;SDS011;1821;50.936;6.854;2023-05-16T00:28:42;10.43;;;7.97;;
3613;SDS011;1821;50.936;6.854;2023-05-16T00:29:24;11.02;;;8.10;;
3613;SDS011;1821;50.936;6.854;2023-05-16T00:30:06;10.02;;;7.38;;
3613;SDS011;1821;50.936;6.854;2023-05-16T00:30:48;10.10;;;7.93;;
3613;SDS011;1821;50.936;6.854;2023-05-16T00:31:30;13.30;;;8.30;;
3613;SDS011;1821;50.936;6.854;2023-05-16T00:32:13;12.65;;;7.88;;
3613;SDS011;1821;50.936;6.854;2023-05-16T00:32:55;13.02;;;7.75;;
3613;SDS011;1821;50.936;6.854;2023-05-16T00:33:37;11.45;;;8.10;;
3613;SDS011;1821;50.936;6.854;2023-05-16T00:34:19;12.38;;;7.75;;
3613;SDS011;1821;50.936;6.854;2023-05-16T00:35:03;13.35;;;7.20;;
3613;SDS011;1821;50.936;6.854;2023-05-16T00:35:45;12.18;;;6.30;;
3613;SDS011;1821;50.936;6.854;2023-05-16T00:36:27;9.82;;;6.20;;
3613;SDS011;1821;50.936;6.854;2023-05-16T00:37:09;8.90;;;6.80;;
3613;SDS011;1821;50.936;6.854;2023-05-16T00:37:51;8.18;;;6.40;;
3613;SDS011;1821;50.936;6.854;2023-05-16T00:38:33;9.40;;;6.20;;
3613;SDS011;1821;50.936;6.854;2023-05-16T00:39:15;8.80;;;6.18;;
3613;SDS011;1821;50.936;6.854;2023-05-16T00:39:57;9.50;;;5.82;;
3613;SDS011;1821;50.936;6.854;2023-05-16T00:40:39;8.65;;;6.00;;
3613;SDS011;1821;50.936;6.854;2023-05-16T00:41:21;6.22;;;5.32;;
3613;SDS011;1821;50.936;6.854;2023-05-16T00:42:04;9.80;;;5.80;;
3613;SDS011;1821;50.936;6.854;2023-05-16T00:42:48;9.48;;;5.53;;
3613;SDS011;1821;50.936;6.854;2023-05-16T00:43:30;9.85;;;5.60;;
3613;SDS011;1821;50.936;6.854;2023-05-16T00:44:12;12.00;;;5.55;;
3613;SDS011;1821;50.936;6.854;2023-05-16T00:44:54;8.52;;;4.95;;
3613;SDS011;1821;50.936;6.854;2023-05-16T00:45:36;8.02;;;5.70;;
3613;SDS011;1821;50.936;6.854;2023-05-16T00:46:18;6.90;;;5.05;;
3613;SDS011;1821;50.936;6.854;2023-05-16T00:47:00;7.40;;;4.78;;
3613;SDS011;1821;50.936;6.854;2023-05-16T00:47:44;7.65;;;5.35;;
3613;SDS011;1821;50.936;6.854;2023-05-16T00:48:28;6.57;;;5.13;;
3613;SDS011;1821;50.936;6.854;2023-05-16T00:49:10;7.57;;;4.47;;
3613;SDS011;1821;50.936;6.854;2023-05-16T00:49:52;6.20;;;4.90;;
3613;SDS011;1821;50.936;6.854;2023-05-16T00:50:35;6.70;;;4.70;;
3613;SDS011;1821;50.936;6.854;2023-05-16T00:51:17;6.65;;;4.50;;
3613;SDS011;1821;50.936;6.854;2023-05-16T00:52:00;6.82;;;4.80;;
3613;SDS011;1821;50.936;6.854;2023-05-16T00:52:43;7.60;;;4.68;;
3613;SDS011;1821;50.936;6.854;2023-05-16T00:53:25;7.57;;;5.13;;
3613;SDS011;1821;50.936;6.854;2023-05-16T00:54:07;6.80;;;5.20;;
3613;SDS011;1821;50.936;6.854;2023-05-16T00:54:50;6.60;;;5.00;;
3613;SDS011;1821;50.936;6.854;2023-05-16T00:55:32;6.45;;;4.65;;
3613;SDS011;1821;50.936;6.854;2023-05-16T00:56:14;6.65;;;4.45;;
3613;SDS011;1821;50.936;6.854;2023-05-16T00:56:57;6.13;;;4.85;;
3613;SDS011;1821;50.936;6.854;2023-05-16T00:57:39;6.13;;;4.45;;
3613;SDS011;1821;50.936;6.854;2023-05-16T00:58:21;6.70;;;4.40;;
3613;SDS011;1821;50.936;6.854;2023-05-16T00:59:04;5.95;;;4.10;;
3613;SDS011;1821;50.936;6.854;2023-05-16T00:59:47;6.28;;;4.10;;
3613;SDS011;1821;50.936;6.854;2023-05-16T01:00:29;6.70;;;4.45;;
3613;SDS011;1821;50.936;6.854;2023-05-16T01:01:11;5.88;;;4.00;;
3613;SDS011;1821;50.936;6.854;2023-05-16T01:01:53;6.38;;;4.47;;
3613;SDS011;1821;50.936;6.854;2023-05-16T01:02:37;6.45;;;4.45;;
3613;SDS011;1821;50.936;6.854;2023-05-16T01:03:19;5.65;;;4.63;;
3613;SDS011;1821;50.936;6.854;2023-05-16T01:04:02;7.20;;;4.30;;
3613;SDS011;1821;50.936;6.854;2023-05-16T01:04:46;8.65;;;4.03;;
3613;SDS011;1821;50.936;6.854;2023-05-16T01:05:28;6.45;;;4.30;;
3613;SDS011;1821;50.936;6.854;2023-05-16T01:06:11;6.40;;;4.40;;
3613;SDS011;1821;50.936;6.854;2023-05-16T01:06:53;5.95;;;4.00;;
3613;SDS011;1821;50.936;6.854;2023-05-16T01:07:37;5.78;;;4.30;;
3613;SDS011;1821;50.936;6.854;2023-05-16T01:08:21;5.70;;;4.50;;
3613;SDS011;1821;50.936;6.854;2023-05-16T01:09:03;4.93;;;3.80;;
3613;SDS011;1821;50.936;6.854;2023-05-16T01:09:48;7.38;;;4.15;;
3613;SDS011;1821;50.936;6.854;2023-05-16T01:10:31;6.15;;;4.20;;
3613;SDS011;1821;50.936;6.854;2023-05-16T01:11:27;5.70;;;4.30;;
3613;SDS011;1821;50.936;6.854;2023-05-16T01:14:40;6.05;;;4.05;;
3613;SDS011;1821;50.936;6.854;2023-05-16T01:15:43;6.65;;;4.32;;
3613;SDS011;1821;50.936;6.854;2023-05-16T01:16:35;5.85;;;4.13;;
3613;SDS011;1821;50.936;6.854;2023-05-16T01:18:27;5.80;;;3.53;;
3613;SDS011;1821;50.936;6.854;2023-05-16T01:20:41;6.15;;;3.63;;
3613;SDS011;1821;50.936;6.854;2023-05-16T01:21:51;4.95;;;3.80;;
3613;SDS011;1821;50.936;6.854;2023-05-16T01:24:03;5.80;;;3.90;;
3613;SDS011;1821;50.936;6.854;2023-05-16T01:25:01;5.00;;;3.80;;
3613;SDS011;1821;50.936;6.854;2023-05-16T01:26:54;6.38;;;4.43;;
3613;SDS011;1821;50.936;6.854;2023-05-16T01:27:37;6.00;;;4.20;;
3613;SDS011;1821;50.936;6.854;2023-05-16T01:28:21;5.70;;;4.50;;
3613;SDS011;1821;50.936;6.854;2023-05-16T01:29:03;9.70;;;5.30;;
3613;SDS011;1821;50.936;6.854;2023-05-16T01:29:46;8.90;;;4.83;;
3613;SDS011;1821;50.936;6.854;2023-05-16T01:30:31;5.90;;;4.80;;
3613;SDS011;1821;50.936;6.854;2023-05-16T01:31:17;7.10;;;5.85;;
3613;SDS011;1821;50.936;6.854;2023-05-16T01:32:00;9.20;;;6.10;;
3613;SDS011;1821;50.936;6.854;2023-05-16T01:32:42;6.45;;;5.20;;
3613;SDS011;1821;50.936;6.854;2023-05-16T01:33:25;6.68;;;5.38;;
3613;SDS011;1821;50.936;6.854;2023-05-16T01:34:06;7.10;;;5.20;;
3613;SDS011;1821;50.936;6.854;2023-05-16T01:34:49;7.90;;;5.88;;
3613;SDS011;1821;50.936;6.854;2023-05-16T01:35:32;7.50;;;5.85;;
3613;SDS011;1821;50.936;6.854;2023-05-16T01:37:26;8.27;;;6.10;;
3613;SDS011;1821;50.936;6.854;2023-05-16T01:38:25;8.90;;;5.88;;
3613;SDS011;1821;50.936;6.854;2023-05-16T01:39:21;8.40;;;5.55;;
3613;SDS011;1821;50.936;6.854;2023-05-16T01:40:19;6.72;;;5.25;;
3613;SDS011;1821;50.936;6.854;2023-05-16T01:41:20;8.27;;;5.55;;
3613;SDS011;1821;50.936;6.854;2023-05-16T01:42:11;8.05;;;5.43;;
3613;SDS011;1821;50.936;6.854;2023-05-16T01:42:54;6.43;;;4.70;;
3613;SDS011;1821;50.936;6.854;2023-05-16T01:43:42;6.82;;;4.63;;
3613;SDS011;1821;50.936;6.854;2023-05-16T01:45:16;6.07;;;4.53;;
3613;SDS011;1821;50.936;6.854;2023-05-16T01:46:08;7.90;;;4.72;;
3613;SDS011;1821;50.936;6.854;2023-05-16T01:46:53;5.37;;;4.40;;
3613;SDS011;1821;50.936;6.854;2023-05-16T01:47:35;7.35;;;4.60;;
3613;SDS011;1821;50.936;6.854;2023-05-16T01:48:22;5.97;;;4.63;;
3613;SDS011;1821;50.936;6.854;2023-05-16T01:49:09;6.50;;;4.50;;
3613;SDS011;1821;50.936;6.854;2023-05-16T01:51:01;7.35;;;4.70;;
3613;SDS011;1821;50.936;6.854;2023-05-16T01:51:59;7.68;;;4.60;;
3613;SDS011;1821;50.936;6.854;2023-05-16T01:53:26;6.05;;;4.07;;
3613;SDS011;1821;50.936;6.854;2023-05-16T01:54:10;5.35;;;4.30;;
3613;SDS011;1821;50.936;6.854;2023-05-16T01:54:54;8.02;;;4.50;;
3613;SDS011;1821;50.936;6.854;2023-05-16T01:55:43;10.43;;;4.45;;
3613;SDS011;1821;50.936;6.854;2023-05-16T01:56:26;9.73;;;4.20;;
3613;SDS011;1821;50.936;6.854;2023-05-16T01:57:10;7.40;;;4.60;;
3613;SDS011;1821;50.936;6.854;2023-05-16T01:57:53;6.40;;;4.47;;
3613;SDS011;1821;50.936;6.854;2023-05-16T01:58:36;7.50;;;4.82;;
3613;SDS011;1821;50.936;6.854;2023-05-16T01:59:24;6.05;;;4.90;;
3613;SDS011;1821;50.936;6.854;2023-05-16T02:00:08;5.30;;;3.78;;
3613;SDS011;1821;50.936;6.854;2023-05-16T02:00:53;7.05;;;4.30;;
3613;SDS011;1821;50.936;6.854;2023-05-16T02:01:36;7.35;;;4.05;;
3613;SDS011;1821;50.936;6.854;2023-05-16T02:02:18;5.35;;;3.60;;
3613;SDS011;1821;50.936;6.854;2023-05-16T02:03:01;7.38;;;4.57;;
3613;SDS011;1821;50.936;6.854;2023-05-16T02:03:44;6.85;;;4.32;;
3613;SDS011;1821;50.936;6.854;2023-05-16T02:04:28;6.85;;;4.10;;
3613;SDS011;1821;50.936;6.854;2023-05-16T02:05:11;8.95;;;3.88;;
3613;SDS011;1821;50.936;6.854;2023-05-16T02:05:53;10.40;;;4.30;;
3613;SDS011;1821;50.936;6.854;2023-05-16T02:06:36;6.97;;;4.05;;
3613;SDS011;1821;50.936;6.854;2023-05-16T02:07:18;8.57;;;4.10;;
3613;SDS011;1821;50.936;6.854;2023-05-16T02:08:01;8.10;;;4.10;;
3613;SDS011;1821;50.936;6.854;2023-05-16T02:08:43;6.00;;;4.55;;
3613;SDS011;1821;50.936;6.854;2023-05-16T02:09:25;7.80;;;3.90;;
3613;SDS011;1821;50.936;6.854;2023-05-16T02:10:08;7.05;;;3.80;;
3613;SDS011;1821;50.936;6.854;2023-05-16T02:10:51;6.45;;;3.55;;
3613;SDS011;1821;50.936;6.854;2023-05-16T02:11:33;9.93;;;4.20;;
3613;SDS011;1821;50.936;6.854;2023-05-16T02:12:15;8.65;;;4.20;;
3613;SDS011;1821;50.936;6.854;2023-05-16T02:12:58;5.93;;;3.70;;
3613;SDS011;1821;50.936;6.854;2023-05-16T02:13:40;7.15;;;4.43;;
3613;SDS011;1821;50.936;6.854;2023-05-16T02:14:22;5.50;;;3.85;;
3613;SDS011;1821;50.936;6.854;2023-05-16T02:15:06;7.45;;;4.38;;
3613;SDS011;1821;50.936;6.854;2023-05-16T02:15:49;9.45;;;4.28;;
3613;SDS011;1821;50.936;6.854;2023-05-16T02:16:33;8.60;;;3.80;;
3613;SDS011;1821;50.936;6.854;2023-05-16T02:17:15;6.85;;;3.80;;
3613;SDS011;1821;50.936;6.854;2023-05-16T02:17:58;5.70;;;3.88;;
3613;SDS011;1821;50.936;6.854;2023-05-16T02:18:40;6.10;;;3.80;;
3613;SDS011;1821;50.936;6.854;2023-05-16T02:19:22;5.60;;;3.75;;
3613;SDS011;1821;50.936;6.854;2023-05-16T02:20:05;7.85;;;4.18;;
3613;SDS011;1821;50.936;6.854;2023-05-16T02:20:50;7.03;;;4.45;;
3613;SDS011;1821;50.936;6.854;2023-05-16T02:21:32;8.45;;;4.68;;
3613;SDS011;1821;50.936;6.854;2023-05-16T02:22:14;8.48;;;4.00;;
3613;SDS011;1821;50.936;6.854;2023-05-16T02:22:57;7.68;;;4.20;;
3613;SDS011;1821;50.936;6.854;2023-05-16T02:23:39;7.28;;;4.60;;
3613;SDS011;1821;50.936;6.854;2023-05-16T02:24:24;6.65;;;4.68;;
3613;SDS011;1821;50.936;6.854;2023-05-16T02:25:06;7.15;;;4.15;;
3613;SDS011;1821;50.936;6.854;2023-05-16T02:25:48;7.13;;;4.63;;
3613;SDS011;1821;50.936;6.854;2023-05-16T02:26:30;7.18;;;4.80;;
3613;SDS011;1821;50.936;6.854;2023-05-16T02:27:13;8.90;;;5.47;;
3613;SDS011;1821;50.936;6.854;2023-05-16T02:27:55;10.80;;;5.65;;
3613;SDS011;1821;50.936;6.854;2023-05-16T02:28:38;9.40;;;5.63;;
3613;SDS011;1821;50.936;6.854;2023-05-16T02:29:20;9.48;;;5.95;;
3613;SDS011;1821;50.936;6.854;2023-05-16T02:30:03;12.80;;;6.20;;
3613;SDS011;1821;50.936;6.854;2023-05-16T02:30:54;10.95;;;6.57;;
3613;SDS011;1821;50.936;6.854;2023-05-16T02:31:37;11.95;;;8.43;;
3613;SDS011;1821;50.936;6.854;2023-05-16T02:32:22;11.05;;;8.35;;
3613;SDS011;1821;50.936;6.854;2023-05-16T02:33:04;14.15;;;9.07;;
3613;SDS011;1821;50.936;6.854;2023-05-16T02:33:46;10.55;;;7.97;;
3613;SDS011;1821;50.936;6.854;2023-05-16T02:34:28;9.57;;;8.05;;
3613;SDS011;1821;50.936;6.854;2023-05-16T02:35:10;13.25;;;9.00;;
3613;SDS011;1821;50.936;6.854;2023-05-16T02:35:53;10.20;;;8.95;;
3613;SDS011;1821;50.936;6.854;2023-05-16T02:36:35;12.43;;;9.10;;
3613;SDS011;1821;50.936;6.854;2023-05-16T02:37:17;12.02;;;9.30;;
3613;SDS011;1821;50.936;6.854;2023-05-16T02:38:00;14.57;;;10.55;;
3613;SDS011;1821;50.936;6.854;2023-05-16T02:38:42;13.68;;;9.85;;
3613;SDS011;1821;50.936;6.854;2023-05-16T02:39:24;13.05;;;10.15;;
3613;SDS011;1821;50.936;6.854;2023-05-16T02:40:07;14.45;;;9.80;;
3613;SDS011;1821;50.936;6.854;2023-05-16T02:40:49;16.73;;;9.90;;
3613;SDS011;1821;50.936;6.854;2023-05-16T02:41:32;16.70;;;9.50;;
3613;SDS011;1821;50.936;6.854;2023-05-16T02:42:13;18.42;;;10.18;;
3613;SDS011;1821;50.936;6.854;2023-05-16T02:42:57;16.90;;;10.50;;
3613;SDS011;1821;50.936;6.854;2023-05-16T02:43:39;16.85;;;10.20;;
3613;SDS011;1821;50.936;6.854;2023-05-16T02:44:25;14.30;;;9.10;;
3613;SDS011;1821;50.936;6.854;2023-05-16T02:45:07;12.13;;;8.75;;
3613;SDS011;1821;50.936;6.854;2023-05-16T02:45:49;12.55;;;8.40;;
3613;SDS011;1821;50.936;6.854;2023-05-16T02:46:32;12.23;;;8.05;;
3613;SDS011;1821;50.936;6.854;2023-05-16T02:47:17;11.95;;;8.38;;
3613;SDS011;1821;50.936;6.854;2023-05-16T02:47:59;14.20;;;7.80;;
3613;SDS011;1821;50.936;6.854;2023-05-16T02:48:42;11.32;;;8.20;;
3613;SDS011;1821;50.936;6.854;2023-05-16T02:49:24;11.75;;;7.85;;
3613;SDS011;1821;50.936;6.854;2023-05-16T02:50:06;13.68;;;7.50;;
3613;SDS011;1821;50.936;6.854;2023-05-16T02:50:48;10.35;;;6.80;;
3613;SDS011;1821;50.936;6.854;2023-05-16T02:51:30;9.97;;;6.90;;
3613;SDS011;1821;50.936;6.854;2023-05-16T02:52:13;11.00;;;6.18;;
3613;SDS011;1821;50.936;6.854;2023-05-16T02:52:57;9.95;;;6.03;;
3613;SDS011;1821;50.936;6.854;2023-05-16T02:53:42;11.00;;;7.03;;
3613;SDS011;1821;50.936;6.854;2023-05-16T02:54:24;9.65;;;5.70;;
3613;SDS011;1821;50.936;6.854;2023-05-16T02:55:06;7.40;;;5.60;;
3613;SDS011;1821;50.936;6.854;2023-05-16T02:55:51;8.27;;;6.10;;
3613;SDS011;1821;50.936;6.854;2023-05-16T02:56:33;13.43;;;5.70;;
3613;SDS011;1821;50.936;6.854;2023-05-16T02:57:17;14.13;;;5.50;;
3613;SDS011;1821;50.936;6.854;2023-05-16T02:57:59;9.30;;;5.22;;
3613;SDS011;1821;50.936;6.854;2023-05-16T02:58:41;8.60;;;5.05;;
3613;SDS011;1821;50.936;6.854;2023-05-16T02:59:24;11.30;;;5.70;;
3613;SDS011;1821;50.936;6.854;2023-05-16T03:00:06;13.30;;;5.43;;
3613;SDS011;1821;50.936;6.854;2023-05-16T03:00:50;13.70;;;5.40;;
3613;SDS011;1821;50.936;6.854;2023-05-16T03:01:33;12.77;;;5.50;;
3613;SDS011;1821;50.936;6.854;2023-05-16T03:02:15;13.13;;;5.43;;
3613;SDS011;1821;50.936;6.854;2023-05-16T03:02:57;10.00;;;5.00;;
3613;SDS011;1821;50.936;6.854;2023-05-16T03:03:39;11.77;;;6.00;;
3613;SDS011;1821;50.936;6.854;2023-05-16T03:04:22;11.25;;;6.10;;
3613;SDS011;1821;50.936;6.854;2023-05-16T03:05:04;11.07;;;5.70;;
3613;SDS011;1821;50.936;6.854;2023-05-16T03:05:47;11.40;;;5.20;;
3613;SDS011;1821;50.936;6.854;2023-05-16T03:06:29;10.05;;;5.80;;
3613;SDS011;1821;50.936;6.854;2023-05-16T03:07:12;8.77;;;5.47;;
3613;SDS011;1821;50.936;6.854;2023-05-16T03:07:54;8.98;;;5.75;;
3613;SDS011;1821;50.936;6.854;2023-05-16T03:08:36;9.77;;;5.40;;
3613;SDS011;1821;50.936;6.854;2023-05-16T03:09:18;9.95;;;4.97;;
3613;SDS011;1821;50.936;6.854;2023-05-16T03:10:02;12.75;;;5.70;;
3613;SDS011;1821;50.936;6.854;2023-05-16T03:10:44;13.18;;;5.65;;
3613;SDS011;1821;50.936;6.854;2023-05-16T03:11:29;10.30;;;5.30;;
3613;SDS011;1821;50.936;6.854;2023-05-16T03:12:11;9.45;;;5.40;;
3613;SDS011;1821;50.936;6.854;2023-05-16T03:12:53;13.25;;;5.20;;
3613;SDS011;1821;50.936;6.854;2023-05-16T03:13:36;13.75;;;5.78;;
3613;SDS011;1821;50.936;6.854;2023-05-16T03:14:18;9.48;;;6.10;;
3613;SDS011;1821;50.936;6.854;2023-05-16T03:15:01;9.93;;;5.30;;
3613;SDS011;1821;50.936;6.854;2023-05-16T03:15:44;12.93;;;5.70;;
3613;SDS011;1821;50.936;6.854;2023-05-16T03:16:27;11.93;;;5.68;;
3613;SDS011;1821;50.936;6.854;2023-05-16T03:17:09;12.10;;;5.18;;
3613;SDS011;1821;50.936;6.854;2023-05-16T03:17:51;8.90;;;4.97;;
3613;SDS011;1821;50.936;6.854;2023-05-16T03:18:33;12.43;;;5.78;;
3613;SDS011;1821;50.936;6.854;2023-05-16T03:19:17;10.07;;;5.13;;
3613;SDS011;1821;50.936;6.854;2023-05-16T03:19:59;9.40;;;5.30;;
3613;SDS011;1821;50.936;6.854;2023-05-16T03:20:42;10.63;;;5.40;;
3613;SDS011;1821;50.936;6.854;2023-05-16T03:21:23;13.93;;;5.05;;
3613;SDS011;1821;50.936;6.854;2023-05-16T03:22:06;12.25;;;5.07;;
3613;SDS011;1821;50.936;6.854;2023-05-16T03:22:48;12.15;;;4.90;;
3613;SDS011;1821;50.936;6.854;2023-05-16T03:23:32;16.33;;;5.63;;
3613;SDS011;1821;50.936;6.854;2023-05-16T03:24:13;12.27;;;5.78;;
3613;SDS011;1821;50.936;6.854;2023-05-16T03:24:56;11.32;;;5.90;;
3613;SDS011;1821;50.936;6.854;2023-05-16T03:25:38;13.02;;;5.30;;
3613;SDS011;1821;50.936;6.854;2023-05-16T03:26:22;14.10;;;5.22;;
3613;SDS011;1821;50.936;6.854;2023-05-16T03:27:05;14.15;;;4.70;;
3613;SDS011;1821;50.936;6.854;2023-05-16T03:27:47;16.63;;;5.40;;
3613;SDS011;1821;50.936;6.854;2023-05-16T03:28:28;14.27;;;6.20;;
3613;SDS011;1821;50.936;6.854;2023-05-16T03:29:10;17.15;;;5.57;;
3613;SDS011;1821;50.936;6.854;2023-05-16T03:29:52;15.85;;;5.03;;
3613;SDS011;1821;50.936;6.854;2023-05-16T03:30:34;11.60;;;5.70;;
3613;SDS011;1821;50.936;6.854;2023-05-16T03:31:19;12.48;;;5.15;;
3613;SDS011;1821;50.936;6.854;2023-05-16T03:32:01;12.70;;;5.35;;
3613;SDS011;1821;50.936;6.854;2023-05-16T03:32:44;9.00;;;4.97;;
3613;SDS011;1821;50.936;6.854;2023-05-16T03:33:27;13.13;;;5.80;;
3613;SDS011;1821;50.936;6.854;2023-05-16T03:34:09;12.57;;;6.15;;
3613;SDS011;1821;50.936;6.854;2023-05-16T03:34:51;10.15;;;4.60;;
3613;SDS011;1821;50.936;6.854;2023-05-16T03:35:33;15.20;;;5.55;;
3613;SDS011;1821;50.936;6.854;2023-05-16T03:36:16;15.55;;;5.32;;
3613;SDS011;1821;50.936;6.854;2023-05-16T03:36:58;16.75;;;5.35;;
3613;SDS011;1821;50.936;6.854;2023-05-16T03:37:40;13.32;;;5.45;;
3613;SDS011;1821;50.936;6.854;2023-05-16T03:38:22;14.18;;;5.40;;
3613;SDS011;1821;50.936;6.854;2023-05-16T03:39:04;14.38;;;5.18;;
3613;SDS011;1821;50.936;6.854;2023-05-16T03:39:46;16.00;;;5.35;;
3613;SDS011;1821;50.936;6.854;2023-05-16T03:40:28;14.00;;;5.18;;
3613;SDS011;1821;50.936;6.854;2023-05-16T03:41:12;15.07;;;5.55;;
3613;SDS011;1821;50.936;6.854;2023-05-16T03:41:55;13.25;;;5.40;;
3613;SDS011;1821;50.936;6.854;2023-05-16T03:42:37;15.85;;;5.85;;
3613;SDS011;1821;50.936;6.854;2023-05-16T03:43:19;13.43;;;5.13;;
3613;SDS011;1821;50.936;6.854;2023-05-16T03:44:01;14.00;;;5.50;;
3613;SDS011;1821;50.936;6.854;2023-05-16T03:44:43;18.80;;;5.38;;
3613;SDS011;1821;50.936;6.854;2023-05-16T03:45:26;12.52;;;4.28;;
3613;SDS011;1821;50.936;6.854;2023-05-16T03:46:08;14.50;;;5.10;;
3613;SDS011;1821;50.936;6.854;2023-05-16T03:46:50;16.65;;;5.20;;
3613;SDS011;1821;50.936;6.854;2023-05-16T03:47:33;12.80;;;5.50;;
3613;SDS011;1821;50.936;6.854;2023-05-16T03:48:17;14.15;;;5.50;;
3613;SDS011;1821;50.936;6.854;2023-05-16T03:48:59;16.67;;;6.75;;
3613;SDS011;1821;50.936;6.854;2023-05-16T03:49:41;18.02;;;6.35;;
3613;SDS011;1821;50.936;6.854;2023-05-16T03:50:23;17.85;;;6.03;;
3613;SDS011;1821;50.936;6.854;2023-05-16T03:51:06;15.82;;;6.10;;
3613;SDS011;1821;50.936;6.854;2023-05-16T03:51:47;15.23;;;5.63;;
3613;SDS011;1821;50.936;6.854;2023-05-16T03:52:29;12.95;;;5.45;;
3613;SDS011;1821;50.936;6.854;2023-05-16T03:53:12;15.90;;;5.50;;
3613;SDS011;1821;50.936;6.854;2023-05-16T03:53:54;14.90;;;5.68;;
3613;SDS011;1821;50.936;6.854;2023-05-16T03:54:36;13.45;;;5.65;;
3613;SDS011;1821;50.936;6.854;2023-05-16T03:55:19;11.10;;;5.25;;
3613;SDS011;1821;50.936;6.854;2023-05-16T03:56:01;11.65;;;5.25;;
3613;SDS011;1821;50.936;6.854;2023-05-16T03:56:44;12.05;;;5.05;;
3613;SDS011;1821;50.936;6.854;2023-05-16T03:57:26;14.23;;;6.18;;
3613;SDS011;1821;50.936;6.854;2023-05-16T03:58:08;14.15;;;6.18;;
3613;SDS011;1821;50.936;6.854;2023-05-16T03:58:51;12.32;;;5.43;;
3613;SDS011;1821;50.936;6.854;2023-05-16T03:59:33;11.88;;;5.50;;
3613;SDS011;1821;50.936;6.854;2023-05-16T04:00:15;11.70;;;5.30;;
3613;SDS011;1821;50.936;6.854;2023-05-16T04:00:57;15.95;;;6.15;;
3613;SDS011;1821;50.936;6.854;2023-05-16T04:01:40;22.88;;;6.50;;
3613;SDS011;1821;50.936;6.854;2023-05-16T04:02:22;16.17;;;5.82;;
3613;SDS011;1821;50.936;6.854;2023-05-16T04:03:05;13.82;;;5.80;;
3613;SDS011;1821;50.936;6.854;2023-05-16T04:03:49;14.80;;;5.35;;
3613;SDS011;1821;50.936;6.854;2023-05-16T04:04:31;16.65;;;6.10;;
3613;SDS011;1821;50.936;6.854;2023-05-16T04:05:13;13.90;;;5.95;;
3613;SDS011;1821;50.936;6.854;2023-05-16T04:05:56;18.67;;;5.90;;
3613;SDS011;1821;50.936;6.854;2023-05-16T04:06:38;18.58;;;7.13;;
3613;SDS011;1821;50.936;6.854;2023-05-16T04:07:22;15.63;;;6.13;;
3613;SDS011;1821;50.936;6.854;2023-05-16T04:08:05;15.60;;;5.95;;
3613;SDS011;1821;50.936;6.854;2023-05-16T04:08:49;15.80;;;5.70;;
3613;SDS011;1821;50.936;6.854;2023-05-16T04:09:31;17.52;;;6.60;;
3613;SDS011;1821;50.936;6.854;2023-05-16T04:10:13;16.08;;;6.07;;
3613;SDS011;1821;50.936;6.854;2023-05-16T04:10:57;14.73;;;6.10;;
3613;SDS011;1821;50.936;6.854;2023-05-16T04:11:39;19.58;;;5.95;;
3613;SDS011;1821;50.936;6.854;2023-05-16T04:12:24;18.05;;;6.32;;
3613;SDS011;1821;50.936;6.854;2023-05-16T04:13:06;14.13;;;5.50;;
3613;SDS011;1821;50.936;6.854;2023-05-16T04:13:48;14.50;;;5.10;;
3613;SDS011;1821;50.936;6.854;2023-05-16T04:14:30;12.00;;;4.97;;
3613;SDS011;1821;50.936;6.854;2023-05-16T04:15:12;10.10;;;5.40;;
3613;SDS011;1821;50.936;6.854;2023-05-16T04:15:54;12.48;;;5.55;;
3613;SDS011;1821;50.936;6.854;2023-05-16T04:16:36;12.13;;;5.45;;
3613;SDS011;1821;50.936;6.854;2023-05-16T04:17:18;16.98;;;5.50;;
3613;SDS011;1821;50.936;6.854;2023-05-16T04:18:01;11.40;;;5.10;;
3613;SDS011;1821;50.936;6.854;2023-05-16T04:18:43;12.00;;;5.10;;
3613;SDS011;1821;50.936;6.854;2023-05-16T04:19:26;14.05;;;5.57;;
3613;SDS011;1821;50.936;6.854;2023-05-16T04:20:08;16.60;;;5.57;;
3613;SDS011;1821;50.936;6.854;2023-05-16T04:20:50;17.67;;;5.97;;
3613;SDS011;1821;50.936;6.854;2023-05-16T04:21:32;13.27;;;5.35;;
3613;SDS011;1821;50.936;6.854;2023-05-16T04:22:14;15.18;;;6.07;;
3613;SDS011;1821;50.936;6.854;2023-05-16T04:22:56;16.55;;;5.50;;
3613;SDS011;1821;50.936;6.854;2023-05-16T04:23:38;12.52;;;5.82;;
3613;SDS011;1821;50.936;6.854;2023-05-16T04:24:21;12.48;;;6.03;;
3613;SDS011;1821;50.936;6.854;2023-05-16T04:25:06;12.90;;;5.63;;
3613;SDS011;1821;50.936;6.854;2023-05-16T04:25:49;14.07;;;5.57;;
3613;SDS011;1821;50.936;6.854;2023-05-16T04:26:31;13.15;;;5.60;;
3613;SDS011;1821;50.936;6.854;2023-05-16T04:27:13;12.02;;;5.43;;
3613;SDS011;1821;50.936;6.854;2023-05-16T04:27:58;15.52;;;5.60;;
3613;SDS011;1821;50.936;6.854;2023-05-16T04:28:42;17.42;;;5.30;;
3613;SDS011;1821;50.936;6.854;2023-05-16T04:29:25;14.65;;;6.22;;
3613;SDS011;1821;50.936;6.854;2023-05-16T04:30:07;14.90;;;6.60;;
3613;SDS011;1821;50.936;6.854;2023-05-16T04:30:51;14.95;;;6.18;;
3613;SDS011;1821;50.936;6.854;2023-05-16T04:31:34;16.88;;;6.28;;
3613;SDS011;1821;50.936;6.854;2023-05-16T04:32:17;14.95;;;6.22;;
3613;SDS011;1821;50.936;6.854;2023-05-16T04:33:00;15.90;;;6.20;;
3613;SDS011;1821;50.936;6.854;2023-05-16T04:33:43;15.93;;;5.70;;
3613;SDS011;1821;50.936;6.854;2023-05-16T04:34:25;14.32;;;5.57;;
3613;SDS011;1821;50.936;6.854;2023-05-16T04:35:08;17.48;;;5.90;;
3613;SDS011;1821;50.936;6.854;2023-05-16T04:35:50;16.58;;;6.60;;
3613;SDS011;1821;50.936;6.854;2023-05-16T04:36:33;16.08;;;6.90;;
3613;SDS011;1821;50.936;6.854;2023-05-16T04:37:15;13.45;;;6.93;;
3613;SDS011;1821;50.936;6.854;2023-05-16T04:37:57;12.90;;;6.30;;
3613;SDS011;1821;50.936;6.854;2023-05-16T04:38:39;17.30;;;6.65;;